METAR Data
IDs: Format: Raw Decoded Include TAF

Data at: 1610 UTC 18 Feb 2019

METAR for:KSDA (Shenandoah Muni, IA, US)
Text:KSDA 181555Z AUTO VRB04KT 10SM BKN020 M10/M12 A3048 RMK AO2
Temperature:-10.0°C ( 14°F)
Dewpoint:-12.0°C ( 10°F) [RH = 85%]
Pressure (altimeter):30.48 inches Hg (1032.3 mb)
Winds:variable direction winds at 5 MPH (4 knots; 2.1 m/s)
Visibility:10 or more sm (16+ km)
Ceiling:2000 feet AGL
Clouds: broken clouds at 2000 feet AGL
QC Flag:automated observation with no human augmentation